Terminal Aerodrome Forecast
Issued by NWS Louisville, KY

Home | Current Version | Previous Version | Text Only | Print | Product List | Glossary On
Versions: 1 2 3 4 5 6 7 8 9 10 11 12 13 14 15
000
FTUS43 KLMK 192300
TAFLEX
TAF
KLEX 192320Z 2000/2024 19012G22KT 6SM -SHRA VCTS SCT025 BKN050CB
      TEMPO 2000/2001 VRB15G30KT 2SM TSRA BKN018CB
     FM200500 22015KT 6SM BR VCSH BKN015
     FM201000 21014KT 6SM -SHRA BR VCTS BKN025CB
     FM201300 24016G26KT P6SM VCSH BKN015
     FM201900 26014G23KT P6SM VCSH BKN025=

USA.gov is the U.S. government's official web portal to all federal, state and local government web resources and services.